sensor_id;sensor_type;location;lat;lon;timestamp;pressure;altitude;pressure_sealevel;temperature;humidity
84020;BME280;74102;49.084;13.694;2024-01-30T00:00:35;94732.09;;;-1.93;64.84
84020;BME280;74102;49.084;13.694;2024-01-30T00:03:00;94743.16;;;-1.92;64.37
84020;BME280;74102;49.084;13.694;2024-01-30T00:05:26;94731.25;;;-1.93;65.23
84020;BME280;74102;49.084;13.694;2024-01-30T00:07:51;94735.69;;;-1.97;64.76
84020;BME280;74102;49.084;13.694;2024-01-30T00:10:16;94736.53;;;-1.96;65.35
84020;BME280;74102;49.084;13.694;2024-01-30T00:12:42;94725.34;;;-1.95;64.77
84020;BME280;74102;49.084;13.694;2024-01-30T00:15:07;94738.16;;;-1.95;63.71
84020;BME280;74102;49.084;13.694;2024-01-30T00:17:37;94734.91;;;-1.99;64.56
84020;BME280;74102;49.084;13.694;2024-01-30T00:20:03;94728.88;;;-1.98;64.58
84020;BME280;74102;49.084;13.694;2024-01-30T00:22:31;94734.84;;;-1.97;64.85
84020;BME280;74102;49.084;13.694;2024-01-30T00:24:56;94731.53;;;-1.99;64.49
84020;BME280;74102;49.084;13.694;2024-01-30T00:27:22;94732.47;;;-2.02;64.23
84020;BME280;74102;49.084;13.694;2024-01-30T00:29:47;94736.00;;;-2.04;64.60
84020;BME280;74102;49.084;13.694;2024-01-30T00:32:13;94736.97;;;-2.07;64.47
84020;BME280;74102;49.084;13.694;2024-01-30T00:34:38;94731.31;;;-2.15;64.93
84020;BME280;74102;49.084;13.694;2024-01-30T00:37:03;94737.25;;;-2.15;65.22
84020;BME280;74102;49.084;13.694;2024-01-30T00:39:29;94733.81;;;-2.14;65.12
84020;BME280;74102;49.084;13.694;2024-01-30T00:41:54;94735.63;;;-2.16;64.29
84020;BME280;74102;49.084;13.694;2024-01-30T00:44:20;94734.06;;;-2.20;65.54
84020;BME280;74102;49.084;13.694;2024-01-30T00:46:45;94730.75;;;-2.22;65.30
84020;BME280;74102;49.084;13.694;2024-01-30T00:49:11;94728.06;;;-2.19;65.12
84020;BME280;74102;49.084;13.694;2024-01-30T00:51:36;94740.75;;;-2.16;65.31
84020;BME280;74102;49.084;13.694;2024-01-30T00:54:01;94731.31;;;-2.15;64.94
84020;BME280;74102;49.084;13.694;2024-01-30T00:56:28;94736.44;;;-2.15;64.72
84020;BME280;74102;49.084;13.694;2024-01-30T00:58:54;94733.81;;;-2.14;65.39
84020;BME280;74102;49.084;13.694;2024-01-30T01:01:19;94743.31;;;-2.16;64.66
84020;BME280;74102;49.084;13.694;2024-01-30T01:03:44;94737.53;;;-2.21;65.27
84020;BME280;74102;49.084;13.694;2024-01-30T01:06:10;94744.31;;;-2.20;65.05
84020;BME280;74102;49.084;13.694;2024-01-30T01:08:36;94741.00;;;-2.22;65.03
84020;BME280;74102;49.084;13.694;2024-01-30T01:11:01;94735.28;;;-2.28;65.51
84020;BME280;74102;49.084;13.694;2024-01-30T01:13:26;94735.50;;;-2.34;65.35
84020;BME280;74102;49.084;13.694;2024-01-30T01:15:52;94722.84;;;-2.37;65.08
84020;BME280;74102;49.084;13.694;2024-01-30T01:18:17;94733.91;;;-2.37;65.84
84020;BME280;74102;49.084;13.694;2024-01-30T01:20:42;94725.38;;;-2.37;65.70
84020;BME280;74102;49.084;13.694;2024-01-30T01:23:08;94722.78;;;-2.36;66.27
84020;BME280;74102;49.084;13.694;2024-01-30T01:25:33;94726.09;;;-2.34;66.10
84020;BME280;74102;49.084;13.694;2024-01-30T01:27:58;94726.06;;;-2.32;66.32
84020;BME280;74102;49.084;13.694;2024-01-30T01:30:26;94728.16;;;-2.42;64.87
84020;BME280;74102;49.084;13.694;2024-01-30T01:32:51;94724.00;;;-2.44;65.47
84020;BME280;74102;49.084;13.694;2024-01-30T01:35:22;94725.50;;;-2.40;66.29
84020;BME280;74102;49.084;13.694;2024-01-30T01:37:49;94728.03;;;-2.39;65.54
84020;BME280;74102;49.084;13.694;2024-01-30T01:40:23;94717.78;;;-2.39;65.14
84020;BME280;74102;49.084;13.694;2024-01-30T01:42:52;94719.47;;;-2.38;65.30
84020;BME280;74102;49.084;13.694;2024-01-30T01:45:19;94715.28;;;-2.40;65.69
84020;BME280;74102;49.084;13.694;2024-01-30T01:47:47;94713.63;;;-2.41;66.02
84020;BME280;74102;49.084;13.694;2024-01-30T01:50:13;94711.13;;;-2.43;66.40
84020;BME280;74102;49.084;13.694;2024-01-30T01:52:44;94709.44;;;-2.44;66.01
84020;BME280;74102;49.084;13.694;2024-01-30T01:55:10;94713.69;;;-2.43;64.97
84020;BME280;74102;49.084;13.694;2024-01-30T01:57:36;94707.78;;;-2.45;65.82
84020;BME280;74102;49.084;13.694;2024-01-30T02:00:02;94704.31;;;-2.44;66.04
84020;BME280;74102;49.084;13.694;2024-01-30T02:02:30;94692.31;;;-2.42;65.86
84020;BME280;74102;49.084;13.694;2024-01-30T02:05:00;94699.44;;;-2.50;64.96
84020;BME280;74102;49.084;13.694;2024-01-30T02:07:27;94696.25;;;-2.55;65.56
84020;BME280;74102;49.084;13.694;2024-01-30T02:09:52;94688.75;;;-2.59;65.48
84020;BME280;74102;49.084;13.694;2024-01-30T02:12:18;94687.69;;;-2.54;65.56
84020;BME280;74102;49.084;13.694;2024-01-30T02:14:47;94696.97;;;-2.51;65.49
84020;BME280;74102;49.084;13.694;2024-01-30T02:17:13;94683.25;;;-2.50;66.00
84020;BME280;74102;49.084;13.694;2024-01-30T02:19:39;94688.31;;;-2.49;66.03
84020;BME280;74102;49.084;13.694;2024-01-30T02:22:05;94685.88;;;-2.52;65.71
84020;BME280;74102;49.084;13.694;2024-01-30T02:24:31;94692.94;;;-2.57;65.72
84020;BME280;74102;49.084;13.694;2024-01-30T02:26:56;94693.94;;;-2.61;65.43
84020;BME280;74102;49.084;13.694;2024-01-30T02:29:21;94693.03;;;-2.60;65.97
84020;BME280;74102;49.084;13.694;2024-01-30T02:31:47;94694.69;;;-2.59;66.35
84020;BME280;74102;49.084;13.694;2024-01-30T02:34:13;94696.50;;;-2.61;65.60
84020;BME280;74102;49.084;13.694;2024-01-30T02:36:38;94695.53;;;-2.58;66.55
84020;BME280;74102;49.084;13.694;2024-01-30T02:39:04;94694.69;;;-2.59;66.59
84020;BME280;74102;49.084;13.694;2024-01-30T02:41:30;94692.13;;;-2.59;66.40
84020;BME280;74102;49.084;13.694;2024-01-30T02:43:55;94691.13;;;-2.55;66.70
84020;BME280;74102;49.084;13.694;2024-01-30T02:46:21;94686.75;;;-2.53;66.77
84020;BME280;74102;49.084;13.694;2024-01-30T02:48:46;94686.00;;;-2.55;66.12
84020;BME280;74102;49.084;13.694;2024-01-30T02:51:12;94687.81;;;-2.57;65.09
84020;BME280;74102;49.084;13.694;2024-01-30T02:53:37;94681.97;;;-2.60;66.24
84020;BME280;74102;49.084;13.694;2024-01-30T02:56:03;94687.22;;;-2.63;66.17
84020;BME280;74102;49.084;13.694;2024-01-30T02:58:28;94688.94;;;-2.64;66.19
84020;BME280;74102;49.084;13.694;2024-01-30T03:00:53;94681.25;;;-2.64;66.73
84020;BME280;74102;49.084;13.694;2024-01-30T03:03:19;94676.19;;;-2.66;66.37
84020;BME280;74102;49.084;13.694;2024-01-30T03:05:44;94672.91;;;-2.69;66.28
84020;BME280;74102;49.084;13.694;2024-01-30T03:08:10;94678.03;;;-2.69;66.22
84020;BME280;74102;49.084;13.694;2024-01-30T03:10:35;94679.84;;;-2.71;66.21
84020;BME280;74102;49.084;13.694;2024-01-30T03:13:00;94678.28;;;-2.75;66.57
84020;BME280;74102;49.084;13.694;2024-01-30T03:15:26;94667.22;;;-2.76;66.79
84020;BME280;74102;49.084;13.694;2024-01-30T03:17:52;94662.94;;;-2.75;66.53
84020;BME280;74102;49.084;13.694;2024-01-30T03:20:18;94665.34;;;-2.72;66.76
84020;BME280;74102;49.084;13.694;2024-01-30T03:22:43;94661.03;;;-2.70;66.78
84020;BME280;74102;49.084;13.694;2024-01-30T03:25:09;94663.47;;;-2.67;66.86
84020;BME280;74102;49.084;13.694;2024-01-30T03:27:34;94663.38;;;-2.66;66.41
84020;BME280;74102;49.084;13.694;2024-01-30T03:29:59;94664.22;;;-2.65;66.83
84020;BME280;74102;49.084;13.694;2024-01-30T03:32:25;94662.53;;;-2.66;66.69
84020;BME280;74102;49.084;13.694;2024-01-30T03:34:50;94663.50;;;-2.69;66.83
84020;BME280;74102;49.084;13.694;2024-01-30T03:37:15;94671.41;;;-2.73;66.32
84020;BME280;74102;49.084;13.694;2024-01-30T03:39:41;94661.97;;;-2.73;67.13
84020;BME280;74102;49.084;13.694;2024-01-30T03:42:06;94661.03;;;-2.70;66.38
84020;BME280;74102;49.084;13.694;2024-01-30T03:44:32;94667.78;;;-2.69;66.90
84020;BME280;74102;49.084;13.694;2024-01-30T03:46:57;94670.34;;;-2.69;66.31
84020;BME280;74102;49.084;13.694;2024-01-30T03:49:22;94666.16;;;-2.70;66.60
84020;BME280;74102;49.084;13.694;2024-01-30T03:51:48;94659.34;;;-2.71;66.81
84020;BME280;74102;49.084;13.694;2024-01-30T03:54:13;94668.63;;;-2.69;66.54
84020;BME280;74102;49.084;13.694;2024-01-30T03:56:38;94664.34;;;-2.68;66.27
84020;BME280;74102;49.084;13.694;2024-01-30T03:59:04;94675.47;;;-2.69;66.69
84020;BME280;74102;49.084;13.694;2024-01-30T04:01:29;94671.28;;;-2.70;66.63
84020;BME280;74102;49.084;13.694;2024-01-30T04:03:54;94663.63;;;-2.72;66.49
84020;BME280;74102;49.084;13.694;2024-01-30T04:06:20;94664.59;;;-2.74;66.04
84020;BME280;74102;49.084;13.694;2024-01-30T04:08:45;94661.28;;;-2.76;66.22
84020;BME280;74102;49.084;13.694;2024-01-30T04:11:10;94666.41;;;-2.76;66.32
84020;BME280;74102;49.084;13.694;2024-01-30T04:13:36;94662.94;;;-2.75;67.25
84020;BME280;74102;49.084;13.694;2024-01-30T04:16:02;94659.53;;;-2.76;66.83
84020;BME280;74102;49.084;13.694;2024-01-30T04:18:28;94665.59;;;-2.78;66.63
84020;BME280;74102;49.084;13.694;2024-01-30T04:20:54;94667.28;;;-2.77;66.74
84020;BME280;74102;49.084;13.694;2024-01-30T04:23:19;94658.75;;;-2.78;66.81
84020;BME280;74102;49.084;13.694;2024-01-30T04:25:45;94663.03;;;-2.78;66.74
84020;BME280;74102;49.084;13.694;2024-01-30T04:28:12;94664.72;;;-2.77;67.25
84020;BME280;74102;49.084;13.694;2024-01-30T04:30:38;94658.63;;;-2.75;67.06
84020;BME280;74102;49.084;13.694;2024-01-30T04:33:04;94661.16;;;-2.73;66.92
84020;BME280;74102;49.084;13.694;2024-01-30T04:35:29;94661.16;;;-2.73;66.73
84020;BME280;74102;49.084;13.694;2024-01-30T04:37:54;94659.47;;;-2.74;66.83
84020;BME280;74102;49.084;13.694;2024-01-30T04:40:21;94665.69;;;-2.80;66.15
84020;BME280;74102;49.084;13.694;2024-01-30T04:42:46;94659.72;;;-2.80;67.15
84020;BME280;74102;49.084;13.694;2024-01-30T04:45:12;94658.06;;;-2.81;67.11
84020;BME280;74102;49.084;13.694;2024-01-30T04:47:37;94665.69;;;-2.80;67.42
84020;BME280;74102;49.084;13.694;2024-01-30T04:50:06;94655.31;;;-2.77;67.61
84020;BME280;74102;49.084;13.694;2024-01-30T04:52:32;94667.22;;;-2.76;66.70
84020;BME280;74102;49.084;13.694;2024-01-30T04:54:57;94660.38;;;-2.75;67.01
84020;BME280;74102;49.084;13.694;2024-01-30T04:57:22;94655.31;;;-2.77;67.17
84020;BME280;74102;49.084;13.694;2024-01-30T04:59:48;94658.75;;;-2.78;67.00
84020;BME280;74102;49.084;13.694;2024-01-30T05:02:13;94658.75;;;-2.78;67.02
84020;BME280;74102;49.084;13.694;2024-01-30T05:04:40;94658.75;;;-2.78;67.30
84020;BME280;74102;49.084;13.694;2024-01-30T05:07:06;94651.09;;;-2.78;67.15
84020;BME280;74102;49.084;13.694;2024-01-30T05:09:31;94662.28;;;-2.80;66.98
84020;BME280;74102;49.084;13.694;2024-01-30T05:11:56;94654.66;;;-2.82;67.03
84020;BME280;74102;49.084;13.694;2024-01-30T05:14:23;94663.16;;;-2.81;67.02
84020;BME280;74102;49.084;13.694;2024-01-30T05:16:48;94657.22;;;-2.82;66.88
84020;BME280;74102;49.084;13.694;2024-01-30T05:19:14;94659.84;;;-2.83;66.51
84020;BME280;74102;49.084;13.694;2024-01-30T05:21:39;94665.00;;;-2.85;67.21
84020;BME280;74102;49.084;13.694;2024-01-30T05:24:05;94668.41;;;-2.84;67.05
84020;BME280;74102;49.084;13.694;2024-01-30T05:26:31;94659.06;;;-2.85;67.22
84020;BME280;74102;49.084;13.694;2024-01-30T05:28:56;94666.75;;;-2.85;67.05
84020;BME280;74102;49.084;13.694;2024-01-30T05:31:22;94663.28;;;-2.84;67.52
84020;BME280;74102;49.084;13.694;2024-01-30T05:33:47;94673.53;;;-2.84;67.17
84020;BME280;74102;49.084;13.694;2024-01-30T05:36:13;94669.31;;;-2.85;66.58
84020;BME280;74102;49.084;13.694;2024-01-30T05:38:39;94672.78;;;-2.86;67.32
84020;BME280;74102;49.084;13.694;2024-01-30T05:41:04;94675.34;;;-2.86;67.04
84020;BME280;74102;49.084;13.694;2024-01-30T05:43:30;94670.22;;;-2.86;67.23
84020;BME280;74102;49.084;13.694;2024-01-30T05:45:55;94667.66;;;-2.86;67.43
84020;BME280;74102;49.084;13.694;2024-01-30T05:48:20;94673.59;;;-2.86;67.22
84020;BME280;74102;49.084;13.694;2024-01-30T05:50:46;94670.22;;;-2.86;66.92
84020;BME280;74102;49.084;13.694;2024-01-30T05:53:11;94677.09;;;-2.88;67.01
84020;BME280;74102;49.084;13.694;2024-01-30T05:55:37;94677.09;;;-2.88;66.79
84020;BME280;74102;49.084;13.694;2024-01-30T05:58:03;94673.69;;;-2.89;67.24
84020;BME280;74102;49.084;13.694;2024-01-30T06:00:29;94671.13;;;-2.89;66.97
84020;BME280;74102;49.084;13.694;2024-01-30T06:02:54;94670.34;;;-2.89;67.81
84020;BME280;74102;49.084;13.694;2024-01-30T06:05:19;94671.13;;;-2.89;66.73
84020;BME280;74102;49.084;13.694;2024-01-30T06:07:45;94669.41;;;-2.88;66.76
84020;BME280;74102;49.084;13.694;2024-01-30T06:10:10;94666.03;;;-2.89;67.27
84020;BME280;74102;49.084;13.694;2024-01-30T06:12:36;94668.66;;;-2.90;66.78
84020;BME280;74102;49.084;13.694;2024-01-30T06:15:01;94664.44;;;-2.91;66.88
84020;BME280;74102;49.084;13.694;2024-01-30T06:17:28;94674.75;;;-2.93;66.65
84020;BME280;74102;49.084;13.694;2024-01-30T06:19:53;94657.00;;;-2.97;67.15
84020;BME280;74102;49.084;13.694;2024-01-30T06:22:19;94663.84;;;-2.98;67.42
84020;BME280;74102;49.084;13.694;2024-01-30T06:24:45;94664.75;;;-2.99;67.07
84020;BME280;74102;49.084;13.694;2024-01-30T06:27:10;94671.59;;;-2.99;67.52
84020;BME280;74102;49.084;13.694;2024-01-30T06:29:36;94663.91;;;-2.99;67.57
84020;BME280;74102;49.084;13.694;2024-01-30T06:32:01;94667.34;;;-3.00;67.68
84020;BME280;74102;49.084;13.694;2024-01-30T06:34:26;94669.91;;;-3.00;67.36
84020;BME280;74102;49.084;13.694;2024-01-30T06:36:52;94672.47;;;-3.00;67.92
84020;BME280;74102;49.084;13.694;2024-01-30T06:39:17;94669.03;;;-2.99;67.50
84020;BME280;74102;49.084;13.694;2024-01-30T06:41:43;94665.56;;;-2.98;67.48
84020;BME280;74102;49.084;13.694;2024-01-30T06:44:09;94670.66;;;-2.98;67.09
84020;BME280;74102;49.084;13.694;2024-01-30T06:46:35;94669.78;;;-2.97;67.21
84020;BME280;74102;49.084;13.694;2024-01-30T06:49:00;94663.78;;;-2.96;67.45
84020;BME280;74102;49.084;13.694;2024-01-30T06:51:26;94668.78;;;-2.93;67.13
84020;BME280;74102;49.084;13.694;2024-01-30T06:53:52;94668.78;;;-2.93;67.34
84020;BME280;74102;49.084;13.694;2024-01-30T06:56:17;94672.91;;;-2.89;67.52
84020;BME280;74102;49.084;13.694;2024-01-30T06:58:49;94671.38;;;-2.95;66.97
84020;BME280;74102;49.084;13.694;2024-01-30T07:01:15;94673.06;;;-2.94;67.43
84020;BME280;74102;49.084;13.694;2024-01-30T07:03:41;94672.94;;;-2.91;67.75
84020;BME280;74102;49.084;13.694;2024-01-30T07:06:08;94682.09;;;-2.85;67.44
84020;BME280;74102;49.084;13.694;2024-01-30T07:08:33;94676.03;;;-2.83;67.55
84020;BME280;74102;49.084;13.694;2024-01-30T07:10:58;94681.09;;;-2.81;67.46
84020;BME280;74102;49.084;13.694;2024-01-30T07:13:24;94681.84;;;-2.79;67.20
84020;BME280;74102;49.084;13.694;2024-01-30T07:15:50;94675.81;;;-2.77;67.79
84020;BME280;74102;49.084;13.694;2024-01-30T07:18:15;94679.97;;;-2.74;67.20
84020;BME280;74102;49.084;13.694;2024-01-30T07:20:41;94678.16;;;-2.72;67.18
84020;BME280;74102;49.084;13.694;2024-01-30T07:23:14;94684.81;;;-2.68;67.66
84020;BME280;74102;49.084;13.694;2024-01-30T07:25:44;94686.38;;;-2.64;66.65
84020;BME280;74102;49.084;13.694;2024-01-30T07:28:10;94684.47;;;-2.59;67.40
84020;BME280;74102;49.084;13.694;2024-01-30T07:30:36;94686.00;;;-2.55;68.02
84020;BME280;74102;49.084;13.694;2024-01-30T07:33:02;94690.38;;;-2.57;67.86
84020;BME280;74102;49.084;13.694;2024-01-30T07:35:27;94687.81;;;-2.57;67.86
84020;BME280;74102;49.084;13.694;2024-01-30T07:37:53;94689.16;;;-2.48;68.24
84020;BME280;74102;49.084;13.694;2024-01-30T07:40:18;94682.81;;;-2.40;67.73
84020;BME280;74102;49.084;13.694;2024-01-30T07:42:43;94679.88;;;-2.31;67.56
84020;BME280;74102;49.084;13.694;2024-01-30T07:45:09;94676.03;;;-2.21;67.32
84020;BME280;74102;49.084;13.694;2024-01-30T07:47:34;94681.59;;;-2.11;67.66
84020;BME280;74102;49.084;13.694;2024-01-30T07:50:00;94675.28;;;-2.02;67.01
84020;BME280;74102;49.084;13.694;2024-01-30T07:52:25;94680.88;;;-1.94;67.19
84020;BME280;74102;49.084;13.694;2024-01-30T07:54:51;94683.97;;;-1.86;66.64
84020;BME280;74102;49.084;13.694;2024-01-30T07:57:17;94693.03;;;-1.79;66.81
84020;BME280;74102;49.084;13.694;2024-01-30T07:59:43;94682.66;;;-1.76;67.62
84020;BME280;74102;49.084;13.694;2024-01-30T08:02:10;94690.84;;;-1.68;68.25
84020;BME280;74102;49.084;13.694;2024-01-30T08:04:35;94692.25;;;-1.61;67.57
84020;BME280;74102;49.084;13.694;2024-01-30T08:07:01;94695.38;;;-1.54;67.73
84020;BME280;74102;49.084;13.694;2024-01-30T08:09:26;94688.25;;;-1.48;66.59
84020;BME280;74102;49.084;13.694;2024-01-30T08:11:51;94686.16;;;-1.40;64.70
84020;BME280;74102;49.084;13.694;2024-01-30T08:14:17;94691.91;;;-1.35;64.75
84020;BME280;74102;49.084;13.694;2024-01-30T08:16:42;94693.44;;;-1.31;64.30
84020;BME280;74102;49.084;13.694;2024-01-30T08:19:07;94692.41;;;-1.27;63.69
84020;BME280;74102;49.084;13.694;2024-01-30T08:21:33;94697.25;;;-1.21;63.41
84020;BME280;74102;49.084;13.694;2024-01-30T08:24:03;94695.19;;;-1.13;63.44
84020;BME280;74102;49.084;13.694;2024-01-30T08:26:29;94693.19;;;-1.06;63.73
84020;BME280;74102;49.084;13.694;2024-01-30T08:28:55;94689.41;;;-0.99;62.86
84020;BME280;74102;49.084;13.694;2024-01-30T08:31:20;94695.88;;;-0.90;63.29
84020;BME280;74102;49.084;13.694;2024-01-30T08:33:45;94698.91;;;-0.82;62.78
84020;BME280;74102;49.084;13.694;2024-01-30T08:36:11;94701.97;;;-0.74;61.79
84020;BME280;74102;49.084;13.694;2024-01-30T08:38:36;94702.41;;;-0.66;62.85
84020;BME280;74102;49.084;13.694;2024-01-30T08:41:02;94704.63;;;-0.59;62.25
84020;BME280;74102;49.084;13.694;2024-01-30T08:43:28;94714.53;;;-0.51;62.08
84020;BME280;74102;49.084;13.694;2024-01-30T08:45:53;94703.03;;;-0.44;61.33
84020;BME280;74102;49.084;13.694;2024-01-30T08:48:18;94705.31;;;-0.38;61.65
84020;BME280;74102;49.084;13.694;2024-01-30T08:50:44;94711.00;;;-0.31;60.84
84020;BME280;74102;49.084;13.694;2024-01-30T08:53:09;94712.47;;;-0.26;61.13
84020;BME280;74102;49.084;13.694;2024-01-30T08:55:35;94712.06;;;-0.18;60.49
84020;BME280;74102;49.084;13.694;2024-01-30T08:58:00;94710.91;;;-0.13;60.40
84020;BME280;74102;49.084;13.694;2024-01-30T09:00:26;94702.00;;;-0.06;59.80
84020;BME280;74102;49.084;13.694;2024-01-30T09:02:51;94711.09;;;0.02;59.91
84020;BME280;74102;49.084;13.694;2024-01-30T09:05:16;94708.97;;;0.10;60.57
84020;BME280;74102;49.084;13.694;2024-01-30T09:07:42;94715.41;;;0.18;58.71
84020;BME280;74102;49.084;13.694;2024-01-30T09:10:07;94714.03;;;0.28;59.45
84020;BME280;74102;49.084;13.694;2024-01-30T09:12:33;94706.72;;;0.36;59.31
84020;BME280;74102;49.084;13.694;2024-01-30T09:14:58;94708.81;;;0.45;59.55
84020;BME280;74102;49.084;13.694;2024-01-30T09:17:25;94716.16;;;0.53;59.60
84020;BME280;74102;49.084;13.694;2024-01-30T09:19:50;94702.06;;;0.60;59.03
84020;BME280;74102;49.084;13.694;2024-01-30T09:22:15;94704.91;;;0.71;58.33
84020;BME280;74102;49.084;13.694;2024-01-30T09:24:41;94706.09;;;0.81;58.24
84020;BME280;74102;49.084;13.694;2024-01-30T09:27:06;94713.16;;;0.93;58.06
84020;BME280;74102;49.084;13.694;2024-01-30T09:29:31;94701.44;;;1.03;57.95
84020;BME280;74102;49.084;13.694;2024-01-30T09:31:59;94699.97;;;1.15;57.35
84020;BME280;74102;49.084;13.694;2024-01-30T09:34:25;94704.53;;;1.26;56.72
84020;BME280;74102;49.084;13.694;2024-01-30T09:36:50;94707.44;;;1.35;56.40
84020;BME280;74102;49.084;13.694;2024-01-30T09:39:15;94705.09;;;1.46;56.12
84020;BME280;74102;49.084;13.694;2024-01-30T09:41:48;94691.69;;;1.55;56.09
84020;BME280;74102;49.084;13.694;2024-01-30T09:44:16;94696.25;;;1.66;55.04
84020;BME280;74102;49.084;13.694;2024-01-30T09:46:42;94697.41;;;1.76;54.63
84020;BME280;74102;49.084;13.694;2024-01-30T09:49:09;94684.72;;;1.87;54.68
84020;BME280;74102;49.084;13.694;2024-01-30T09:51:34;94693.53;;;1.99;55.05
84020;BME280;74102;49.084;13.694;2024-01-30T09:54:02;94688.66;;;2.08;54.88
84020;BME280;74102;49.084;13.694;2024-01-30T09:56:28;94688.78;;;2.21;55.06
84020;BME280;74102;49.084;13.694;2024-01-30T09:58:54;94689.06;;;2.31;54.82
84020;BME280;74102;49.084;13.694;2024-01-30T10:01:20;94684.09;;;2.42;54.61
84020;BME280;74102;49.084;13.694;2024-01-30T10:03:45;94680.78;;;2.54;54.19
84020;BME280;74102;49.084;13.694;2024-01-30T10:06:11;94688.53;;;2.68;54.06
84020;BME280;74102;49.084;13.694;2024-01-30T10:08:37;94677.44;;;2.80;52.65
84020;BME280;74102;49.084;13.694;2024-01-30T10:11:03;94681.13;;;2.90;52.72
84020;BME280;74102;49.084;13.694;2024-01-30T10:13:28;94672.63;;;3.02;52.40
84020;BME280;74102;49.084;13.694;2024-01-30T10:15:54;94671.69;;;3.17;51.99
84020;BME280;74102;49.084;13.694;2024-01-30T10:18:22;94668.84;;;3.35;52.21
84020;BME280;74102;49.084;13.694;2024-01-30T10:20:47;94670.50;;;3.50;52.90
84020;BME280;74102;49.084;13.694;2024-01-30T10:23:13;94686.69;;;3.66;53.00
84020;BME280;74102;49.084;13.694;2024-01-30T10:25:39;94664.56;;;3.75;52.25
84020;BME280;74102;49.084;13.694;2024-01-30T10:28:04;94668.44;;;3.82;51.66
84020;BME280;74102;49.084;13.694;2024-01-30T10:30:30;94669.88;;;3.86;52.33
84020;BME280;74102;49.084;13.694;2024-01-30T10:32:55;94659.44;;;3.87;51.26
84020;BME280;74102;49.084;13.694;2024-01-30T10:35:20;94657.69;;;3.88;50.24
84020;BME280;74102;49.084;13.694;2024-01-30T10:37:49;94657.69;;;3.88;50.70
84020;BME280;74102;49.084;13.694;2024-01-30T10:40:15;94653.13;;;3.91;51.12
84020;BME280;74102;49.084;13.694;2024-01-30T10:42:45;94654.78;;;3.92;51.63
84020;BME280;74102;49.084;13.694;2024-01-30T10:45:14;94657.16;;;3.95;51.28
84020;BME280;74102;49.084;13.694;2024-01-30T10:47:52;94654.19;;;4.01;52.09
84020;BME280;74102;49.084;13.694;2024-01-30T10:50:18;94654.69;;;4.06;51.77
84020;BME280;74102;49.084;13.694;2024-01-30T10:52:44;94646.53;;;4.12;51.82
84020;BME280;74102;49.084;13.694;2024-01-30T10:55:10;94647.78;;;4.19;51.10
84020;BME280;74102;49.084;13.694;2024-01-30T10:57:37;94643.75;;;4.28;51.55
84020;BME280;74102;49.084;13.694;2024-01-30T11:00:11;94637.22;;;4.35;49.68
84020;BME280;74102;49.084;13.694;2024-01-30T11:02:45;94637.44;;;4.45;49.64
84020;BME280;74102;49.084;13.694;2024-01-30T11:05:11;94638.47;;;4.55;48.77
84020;BME280;74102;49.084;13.694;2024-01-30T11:07:39;94631.81;;;4.63;48.61
84020;BME280;74102;49.084;13.694;2024-01-30T11:10:06;94633.69;;;4.74;48.42
84020;BME280;74102;49.084;13.694;2024-01-30T11:12:38;94626.19;;;4.82;48.92
84020;BME280;74102;49.084;13.694;2024-01-30T11:17:52;94618.28;;;4.96;46.54
84020;BME280;74102;49.084;13.694;2024-01-30T11:20:21;94625.41;;;5.05;46.90
84020;BME280;74102;49.084;13.694;2024-01-30T11:22:47;94616.38;;;5.11;44.65
84020;BME280;74102;49.084;13.694;2024-01-30T11:25:17;94618.75;;;5.14;44.96
84020;BME280;74102;49.084;13.694;2024-01-30T11:27:44;94618.66;;;5.15;46.13
84020;BME280;74102;49.084;13.694;2024-01-30T11:30:09;94612.53;;;5.16;46.06
84020;BME280;74102;49.084;13.694;2024-01-30T11:32:36;94615.84;;;5.18;47.41
84020;BME280;74102;49.084;13.694;2024-01-30T11:35:05;94610.66;;;5.18;47.64
84020;BME280;74102;49.084;13.694;2024-01-30T11:37:31;94613.03;;;5.21;48.96
84020;BME280;74102;49.084;13.694;2024-01-30T11:39:58;94605.94;;;5.23;48.73
84020;BME280;74102;49.084;13.694;2024-01-30T11:42:24;94608.34;;;5.26;49.93
84020;BME280;74102;49.084;13.694;2024-01-30T11:44:52;94610.72;;;5.29;50.01
84020;BME280;74102;49.084;13.694;2024-01-30T11:47:18;94595.88;;;5.31;50.57
84020;BME280;74102;49.084;13.694;2024-01-30T11:49:43;94595.66;;;5.35;50.73
84020;BME280;74102;49.084;13.694;2024-01-30T11:52:09;94599.69;;;5.39;50.16
84020;BME280;74102;49.084;13.694;2024-01-30T11:54:35;94595.91;;;5.43;49.40
84020;BME280;74102;49.084;13.694;2024-01-30T11:57:01;94596.44;;;5.48;48.00
84020;BME280;74102;49.084;13.694;2024-01-30T11:59:26;94598.56;;;5.54;48.39
84020;BME280;74102;49.084;13.694;2024-01-30T12:01:58;94595.75;;;5.57;49.46
84020;BME280;74102;49.084;13.694;2024-01-30T12:04:23;94601.78;;;5.57;50.49
84020;BME280;74102;49.084;13.694;2024-01-30T12:06:52;94598.84;;;5.62;51.84
84020;BME280;74102;49.084;13.694;2024-01-30T12:09:18;94603.81;;;5.65;52.35
84020;BME280;74102;49.084;13.694;2024-01-30T12:11:47;94603.81;;;5.65;52.33
84020;BME280;74102;49.084;13.694;2024-01-30T12:14:14;94597.56;;;5.67;52.22
84020;BME280;74102;49.084;13.694;2024-01-30T12:16:40;94606.41;;;5.65;52.21
84020;BME280;74102;49.084;13.694;2024-01-30T12:19:06;94596.75;;;5.67;52.23
84020;BME280;74102;49.084;13.694;2024-01-30T12:21:34;94601.00;;;5.68;52.09
84020;BME280;74102;49.084;13.694;2024-01-30T12:24:00;94597.22;;;5.72;52.71
84020;BME280;74102;49.084;13.694;2024-01-30T12:26:26;94597.97;;;5.74;52.16
84020;BME280;74102;49.084;13.694;2024-01-30T12:28:54;94597.22;;;5.72;53.34
84020;BME280;74102;49.084;13.694;2024-01-30T12:31:26;94597.44;;;5.69;54.07
84020;BME280;74102;49.084;13.694;2024-01-30T12:33:52;94598.50;;;5.66;54.64
84020;BME280;74102;49.084;13.694;2024-01-30T12:36:18;94599.56;;;5.64;55.28
84020;BME280;74102;49.084;13.694;2024-01-30T12:38:43;94590.84;;;5.65;55.60
84020;BME280;74102;49.084;13.694;2024-01-30T12:41:09;94595.81;;;5.68;55.48
84020;BME280;74102;49.084;13.694;2024-01-30T12:43:35;94599.44;;;5.65;55.85
84020;BME280;74102;49.084;13.694;2024-01-30T12:46:01;94587.28;;;5.66;55.52
84020;BME280;74102;49.084;13.694;2024-01-30T12:48:28;94592.47;;;5.66;56.04